createdAt,value
2023-04-30T00:00:02.728Z,7.30
2023-04-30T00:01:04.413Z,7.30
2023-04-30T00:01:39.198Z,6.70
2023-04-30T00:02:12.760Z,7.10
2023-04-30T00:02:46.559Z,6.60
2023-04-30T00:03:20.384Z,7.00
2023-04-30T00:03:54.086Z,7.30
2023-04-30T00:04:27.642Z,7.60
2023-04-30T00:05:01.252Z,6.60
2023-04-30T00:05:34.633Z,7.40
2023-04-30T00:06:08.301Z,7.30
2023-04-30T00:06:41.816Z,7.60
2023-04-30T00:07:15.183Z,7.50
2023-04-30T00:07:48.583Z,7.40
2023-04-30T00:08:24.430Z,7.70
2023-04-30T00:08:57.771Z,7.30
2023-04-30T00:09:31.172Z,7.50
2023-04-30T00:10:05.639Z,7.30
2023-04-30T00:10:39.266Z,6.90
2023-04-30T00:11:12.653Z,7.40
2023-04-30T00:11:46.169Z,7.40
2023-04-30T00:12:20.945Z,7.30
2023-04-30T00:12:54.474Z,7.40
2023-04-30T00:13:27.756Z,7.30
2023-04-30T00:14:03.083Z,7.30
2023-04-30T00:14:39.898Z,7.50
2023-04-30T00:15:14.810Z,7.50
2023-04-30T00:15:48.159Z,7.20
2023-04-30T00:16:21.441Z,7.20
2023-04-30T00:16:54.719Z,7.60
2023-04-30T00:17:28.117Z,7.70
2023-04-30T00:18:01.656Z,7.70
2023-04-30T00:18:35.111Z,7.20
2023-04-30T00:19:08.718Z,7.70
2023-04-30T00:19:42.881Z,7.50
2023-04-30T00:20:16.412Z,7.60
2023-04-30T00:20:52.149Z,8.10
2023-04-30T00:21:25.670Z,8.20
2023-04-30T00:22:01.675Z,7.70
2023-04-30T00:22:35.164Z,8.40
2023-04-30T00:23:08.504Z,7.70
2023-04-30T00:23:41.752Z,7.40
2023-04-30T00:24:15.063Z,7.90
2023-04-30T00:24:48.571Z,7.80
2023-04-30T00:25:24.783Z,8.50
2023-04-30T00:25:58.177Z,8.00
2023-04-30T00:26:31.621Z,8.00
2023-04-30T00:27:04.891Z,7.50
2023-04-30T00:27:40.657Z,8.00
2023-04-30T00:28:14.493Z,8.20
2023-04-30T00:28:47.836Z,8.30
2023-04-30T00:29:21.226Z,8.10
2023-04-30T00:29:55.445Z,8.30
2023-04-30T00:30:29.015Z,9.00
2023-04-30T00:31:02.927Z,8.00
2023-04-30T00:31:36.314Z,8.20
2023-04-30T00:32:09.715Z,8.80
2023-04-30T00:32:43.083Z,8.70
2023-04-30T00:33:16.563Z,8.60
2023-04-30T00:33:50.004Z,8.40
2023-04-30T00:34:23.419Z,8.40
2023-04-30T00:34:56.775Z,8.10
2023-04-30T00:35:30.413Z,8.90
2023-04-30T00:36:04.203Z,8.20
2023-04-30T00:36:37.814Z,8.40
2023-04-30T00:37:11.235Z,8.50
2023-04-30T00:37:44.726Z,8.40
2023-04-30T00:38:18.223Z,8.90
2023-04-30T00:38:52.246Z,8.60
2023-04-30T00:39:25.721Z,8.70
2023-04-30T00:39:59.126Z,8.40
2023-04-30T00:40:38.549Z,8.70
2023-04-30T00:41:12.287Z,8.50
2023-04-30T00:41:46.328Z,8.80
2023-04-30T00:42:19.888Z,9.10
2023-04-30T00:42:55.970Z,9.10
2023-04-30T00:43:29.427Z,9.00
2023-04-30T00:44:03.029Z,8.30
2023-04-30T00:44:36.633Z,8.40
2023-04-30T00:45:10.479Z,8.80
2023-04-30T00:45:43.750Z,8.80
2023-04-30T00:46:19.103Z,8.50
2023-04-30T00:46:53.602Z,8.60
2023-04-30T00:47:27.139Z,8.70
2023-04-30T00:48:00.819Z,9.00
2023-04-30T00:48:34.376Z,8.80
2023-04-30T00:49:07.860Z,8.90
2023-04-30T00:49:41.398Z,8.70
2023-04-30T00:50:16.524Z,8.40
2023-04-30T00:50:49.835Z,8.90
2023-04-30T00:51:24.052Z,9.50
2023-04-30T00:51:57.379Z,8.80
2023-04-30T00:52:31.820Z,8.30
2023-04-30T00:53:05.349Z,8.30
2023-04-30T00:53:40.579Z,8.40
2023-04-30T00:54:14.742Z,8.80
2023-04-30T00:54:48.584Z,8.70
2023-04-30T00:55:22.238Z,8.90
2023-04-30T00:55:56.465Z,8.80
2023-04-30T00:56:31.717Z,8.50
2023-04-30T00:57:05.990Z,8.80
2023-04-30T00:57:41.245Z,9.10
2023-04-30T00:58:15.848Z,8.60
2023-04-30T00:58:51.748Z,8.90
2023-04-30T00:59:27.309Z,9.10
2023-04-30T01:00:01.749Z,8.80
2023-04-30T01:00:35.425Z,9.00
2023-04-30T01:01:09.132Z,9.20
2023-04-30T01:01:42.837Z,8.60
2023-04-30T01:02:17.514Z,9.10
2023-04-30T01:02:51.156Z,8.80
2023-04-30T01:03:24.809Z,8.50
2023-04-30T01:03:58.856Z,8.70
2023-04-30T01:04:33.780Z,9.00
2023-04-30T01:05:08.494Z,8.80
2023-04-30T01:05:42.092Z,8.70
2023-04-30T01:06:15.815Z,8.90
2023-04-30T01:06:49.377Z,9.10
2023-04-30T01:07:23.276Z,8.50
2023-04-30T01:07:57.513Z,8.60
2023-04-30T01:08:32.387Z,8.90
2023-04-30T01:09:06.544Z,9.10
2023-04-30T01:09:40.385Z,8.50
2023-04-30T01:10:14.743Z,9.00
2023-04-30T01:11:22.108Z,9.10
2023-04-30T01:12:14.751Z,8.30
2023-04-30T01:12:59.246Z,8.30
2023-04-30T01:13:46.040Z,8.80
2023-04-30T01:14:41.233Z,8.30
2023-04-30T01:15:19.427Z,8.30
2023-04-30T01:16:01.037Z,8.40
2023-04-30T01:16:43.956Z,8.90
2023-04-30T01:17:29.707Z,8.70
2023-04-30T01:18:34.094Z,8.50
2023-04-30T01:19:34.289Z,8.50
2023-04-30T01:20:11.688Z,8.50
2023-04-30T01:20:59.810Z,8.70
2023-04-30T01:21:35.765Z,8.20
2023-04-30T01:22:29.327Z,8.40
2023-04-30T01:23:31.694Z,8.80
2023-04-30T01:24:43.831Z,8.30
2023-04-30T01:25:50.490Z,7.80
2023-04-30T01:26:59.073Z,8.00
2023-04-30T01:27:46.608Z,8.00
2023-04-30T01:28:20.939Z,8.30
2023-04-30T01:28:57.392Z,8.70
2023-04-30T01:29:32.988Z,8.60
2023-04-30T01:30:07.888Z,8.90
2023-04-30T01:30:45.141Z,8.60
2023-04-30T01:31:19.977Z,8.20
2023-04-30T01:31:53.700Z,8.90
2023-04-30T01:32:29.490Z,8.60
2023-04-30T01:33:06.128Z,8.40
2023-04-30T01:33:39.660Z,9.30
2023-04-30T01:34:13.010Z,8.90
2023-04-30T01:34:46.353Z,8.60
2023-04-30T01:35:19.807Z,8.90
2023-04-30T01:35:59.899Z,8.50
2023-04-30T01:36:44.470Z,8.60
2023-04-30T01:37:41.375Z,8.80
2023-04-30T01:38:20.441Z,7.90
2023-04-30T01:39:20.276Z,8.50
2023-04-30T01:40:02.593Z,8.70
2023-04-30T01:40:48.834Z,8.70
2023-04-30T01:41:43.008Z,8.70
2023-04-30T01:42:41.265Z,8.30
2023-04-30T01:43:29.999Z,7.60
2023-04-30T01:44:44.652Z,8.60
2023-04-30T01:45:32.256Z,7.80
2023-04-30T01:46:31.964Z,8.00
2023-04-30T01:47:13.178Z,8.10
2023-04-30T01:48:40.819Z,7.70
2023-04-30T01:51:37.722Z,8.00
2023-04-30T01:52:42.884Z,8.40
2023-04-30T01:53:29.431Z,8.40
2023-04-30T01:54:18.496Z,8.30
2023-04-30T01:55:00.746Z,8.80
2023-04-30T01:55:43.733Z,8.50
2023-04-30T01:56:30.784Z,8.50
2023-04-30T01:57:07.072Z,9.20
2023-04-30T01:57:50.994Z,9.10
2023-04-30T01:58:25.830Z,8.50
2023-04-30T01:59:01.009Z,8.60
2023-04-30T01:59:40.123Z,8.50
2023-04-30T02:00:15.292Z,8.80
2023-04-30T02:00:52.641Z,8.60
2023-04-30T02:01:28.253Z,9.40
2023-04-30T02:02:02.734Z,8.70
2023-04-30T02:02:36.583Z,8.40
2023-04-30T02:03:10.152Z,8.90
2023-04-30T02:03:43.846Z,9.00
2023-04-30T02:04:17.464Z,8.60
2023-04-30T02:04:50.865Z,9.30
2023-04-30T02:05:25.226Z,9.10
2023-04-30T02:05:59.408Z,9.10
2023-04-30T02:06:33.609Z,9.00
2023-04-30T02:07:07.128Z,9.10
2023-04-30T02:07:44.398Z,8.80
2023-04-30T02:08:17.871Z,9.10
2023-04-30T02:08:51.932Z,8.90
2023-04-30T02:09:25.775Z,9.00
2023-04-30T02:09:59.608Z,9.30
2023-04-30T02:10:33.139Z,8.60
2023-04-30T02:11:06.621Z,9.20
2023-04-30T02:11:40.878Z,8.40
2023-04-30T02:12:14.988Z,8.90
2023-04-30T02:12:48.899Z,9.10
2023-04-30T02:13:22.600Z,9.70
2023-04-30T02:13:56.266Z,8.60
2023-04-30T02:14:32.137Z,8.80
2023-04-30T02:15:06.567Z,8.70
2023-04-30T02:15:40.022Z,8.60
2023-04-30T02:16:13.655Z,9.40
2023-04-30T02:16:52.006Z,8.40
2023-04-30T02:17:25.842Z,9.20
2023-04-30T02:18:01.764Z,9.10
2023-04-30T02:18:35.393Z,9.10
2023-04-30T03:36:13.585Z,8.70
2023-04-30T03:36:47.566Z,10.00
2023-04-30T03:37:20.917Z,9.90
2023-04-30T03:37:54.084Z,9.90
2023-04-30T03:38:29.409Z,10.30
2023-04-30T03:39:03.077Z,10.10
2023-04-30T03:39:36.654Z,10.70
2023-04-30T03:40:11.964Z,10.30
2023-04-30T03:40:45.258Z,10.50
2023-04-30T03:41:19.477Z,11.20
2023-04-30T03:41:52.776Z,10.50
2023-04-30T03:42:26.028Z,10.40
2023-04-30T03:42:59.563Z,10.30
2023-04-30T03:43:32.850Z,10.80
2023-04-30T03:44:06.658Z,10.40
2023-04-30T03:44:39.986Z,10.10
2023-04-30T03:45:13.320Z,10.90
2023-04-30T03:45:46.895Z,10.80
2023-04-30T03:47:19.119Z,9.70
2023-04-30T03:47:52.976Z,10.40
2023-04-30T03:48:26.303Z,10.50
2023-04-30T03:49:00.015Z,9.90
2023-04-30T03:49:33.452Z,9.60
2023-04-30T03:50:07.615Z,10.60
2023-04-30T03:51:42.187Z,9.70
2023-04-30T03:52:16.206Z,10.20
2023-04-30T03:52:49.512Z,10.00
2023-04-30T03:53:23.117Z,9.80
2023-04-30T03:53:56.673Z,10.00
2023-04-30T03:54:29.962Z,10.20
2023-04-30T03:55:04.292Z,10.20
2023-04-30T03:55:37.936Z,10.10
2023-04-30T03:56:11.428Z,10.40
2023-04-30T03:56:44.880Z,10.00
2023-04-30T03:57:18.462Z,10.60
2023-04-30T03:57:52.150Z,10.20
2023-04-30T03:58:25.920Z,10.20
2023-04-30T03:58:59.439Z,10.00
2023-04-30T04:00:08.044Z,9.80
2023-04-30T04:00:46.416Z,8.80
2023-04-30T04:01:22.610Z,9.90
2023-04-30T04:01:56.264Z,10.00
2023-04-30T04:02:32.363Z,10.20
2023-04-30T04:03:05.997Z,10.20
2023-04-30T04:03:39.587Z,10.00
2023-04-30T04:04:13.564Z,10.10
2023-04-30T04:04:50.900Z,10.00
2023-04-30T04:05:24.306Z,9.90
2023-04-30T04:05:57.782Z,10.40
2023-04-30T04:06:34.467Z,9.90
2023-04-30T04:07:17.041Z,10.10
2023-04-30T04:07:50.421Z,10.50
2023-04-30T04:08:26.523Z,10.00
2023-04-30T04:09:04.830Z,10.00
2023-04-30T04:09:38.166Z,10.30
2023-04-30T04:10:11.717Z,10.00
2023-04-30T04:10:45.113Z,10.10
2023-04-30T04:11:18.650Z,10.40
2023-04-30T04:11:51.925Z,10.90
2023-04-30T04:12:25.327Z,10.50
2023-04-30T04:12:58.616Z,10.40
2023-04-30T04:13:32.583Z,11.00
2023-04-30T04:14:06.313Z,10.50
2023-04-30T04:14:39.802Z,10.80
2023-04-30T04:15:13.540Z,10.50
2023-04-30T04:15:47.194Z,10.50
2023-04-30T04:16:20.800Z,10.20
2023-04-30T04:16:54.427Z,10.80
2023-04-30T04:17:27.900Z,10.70
2023-04-30T04:18:01.493Z,10.50
2023-04-30T04:18:35.229Z,10.70
2023-04-30T04:19:09.133Z,10.90
2023-04-30T04:19:42.536Z,10.20
2023-04-30T04:20:15.874Z,10.10
2023-04-30T04:20:51.933Z,10.50
2023-04-30T04:21:27.283Z,10.20
2023-04-30T04:22:01.013Z,10.30
2023-04-30T04:22:34.578Z,10.90
2023-04-30T04:23:07.930Z,10.50
2023-04-30T04:23:41.240Z,10.60
2023-04-30T04:24:15.458Z,11.70
2023-04-30T04:24:48.872Z,10.60
2023-04-30T04:25:25.523Z,11.50
2023-04-30T04:25:58.900Z,11.20
2023-04-30T04:26:32.375Z,11.20
2023-04-30T04:27:07.730Z,11.00
2023-04-30T04:27:41.601Z,10.70
2023-04-30T04:28:14.813Z,11.40
2023-04-30T04:28:48.466Z,11.20
2023-04-30T04:29:21.952Z,10.70
2023-04-30T04:29:55.466Z,10.60
2023-04-30T04:30:29.014Z,11.00
2023-04-30T04:31:03.503Z,11.10
2023-04-30T04:31:37.024Z,11.20
2023-04-30T04:32:10.534Z,11.00
2023-04-30T04:32:49.668Z,10.90
2023-04-30T04:33:23.341Z,11.00
2023-04-30T04:34:00.624Z,11.50
2023-04-30T04:34:34.058Z,11.90
2023-04-30T04:35:07.998Z,12.00
2023-04-30T04:35:41.596Z,11.60
2023-04-30T04:36:14.953Z,11.60
2023-04-30T04:36:51.502Z,11.70
2023-04-30T04:37:25.103Z,11.60
2023-04-30T04:37:59.230Z,11.70
2023-04-30T04:38:32.678Z,11.90
2023-04-30T04:39:06.323Z,11.70
2023-04-30T04:39:42.668Z,11.60
2023-04-30T04:40:16.252Z,11.40
2023-04-30T04:40:53.778Z,11.80
2023-04-30T04:41:27.126Z,10.90
2023-04-30T04:42:01.493Z,11.40
2023-04-30T04:42:35.076Z,10.80
2023-04-30T04:43:08.362Z,11.40
2023-04-30T04:43:42.735Z,11.10
2023-04-30T04:44:16.023Z,12.00
2023-04-30T04:44:49.307Z,11.90
2023-04-30T04:45:24.241Z,11.30
2023-04-30T04:45:57.462Z,11.50
2023-04-30T04:46:32.354Z,11.40
2023-04-30T04:47:06.439Z,11.30
2023-04-30T04:47:39.938Z,11.30
2023-04-30T04:48:13.303Z,11.60
2023-04-30T04:48:47.420Z,11.60
2023-04-30T04:49:21.167Z,11.40
2023-04-30T04:49:54.705Z,11.60
2023-04-30T04:50:29.034Z,11.50
2023-04-30T04:51:03.930Z,12.10
2023-04-30T04:51:37.251Z,11.50
2023-04-30T04:52:10.716Z,11.80
2023-04-30T04:52:44.099Z,11.50
2023-04-30T04:53:17.426Z,11.40
2023-04-30T04:53:51.074Z,11.50
2023-04-30T04:54:24.765Z,11.40
2023-04-30T04:54:58.025Z,11.30
2023-04-30T04:55:32.037Z,11.10
2023-04-30T04:56:06.353Z,10.90
2023-04-30T04:56:39.735Z,11.10
2023-04-30T04:57:13.208Z,11.50
2023-04-30T04:57:46.554Z,11.00
2023-04-30T04:58:19.910Z,11.40
2023-04-30T04:58:53.603Z,11.60
2023-04-30T04:59:26.986Z,11.20
2023-04-30T05:00:01.482Z,11.50
2023-04-30T05:00:35.306Z,11.80
2023-04-30T05:01:09.574Z,11.60
2023-04-30T05:01:43.012Z,11.40
2023-04-30T05:02:17.005Z,11.60
2023-04-30T05:02:50.684Z,11.00
2023-04-30T05:03:24.143Z,11.20
2023-04-30T05:03:57.722Z,11.60
2023-04-30T05:04:31.446Z,10.90
2023-04-30T05:05:06.041Z,10.60
2023-04-30T05:05:39.429Z,11.00
2023-04-30T05:06:12.896Z,12.10
2023-04-30T05:06:46.493Z,11.40
2023-04-30T05:07:20.133Z,10.50
2023-04-30T05:07:55.295Z,11.20
2023-04-30T05:08:28.682Z,10.90
2023-04-30T05:09:02.969Z,10.30
2023-04-30T05:09:36.496Z,11.20
2023-04-30T05:10:10.938Z,11.20
2023-04-30T05:10:44.251Z,11.50
2023-04-30T05:11:17.571Z,12.30
2023-04-30T05:11:51.162Z,10.90
2023-04-30T05:12:24.533Z,11.10
2023-04-30T05:12:57.822Z,11.40
2023-04-30T05:13:31.470Z,11.20
2023-04-30T05:14:05.144Z,11.10
2023-04-30T05:14:38.599Z,10.70
2023-04-30T05:15:11.929Z,10.60
2023-04-30T05:15:45.295Z,11.30
2023-04-30T05:16:18.644Z,10.90
2023-04-30T05:16:52.073Z,11.40
2023-04-30T05:17:25.404Z,11.50
2023-04-30T05:17:58.892Z,11.40
2023-04-30T05:18:32.168Z,11.40
2023-04-30T05:19:05.344Z,11.60
2023-04-30T05:19:38.660Z,11.30
2023-04-30T05:20:12.998Z,11.40
2023-04-30T05:20:46.354Z,11.70
2023-04-30T05:21:19.691Z,12.00
2023-04-30T05:21:52.941Z,11.80
2023-04-30T05:22:26.387Z,12.30
2023-04-30T05:22:59.824Z,11.20
2023-04-30T05:23:33.129Z,12.00
2023-04-30T05:24:06.722Z,11.90
2023-04-30T05:24:40.039Z,11.70
2023-04-30T05:25:13.453Z,11.50
2023-04-30T05:25:47.182Z,12.00
2023-04-30T05:26:20.551Z,11.40
2023-04-30T05:26:53.840Z,11.80
2023-04-30T05:27:27.627Z,11.70
2023-04-30T05:28:01.061Z,11.80
2023-04-30T05:28:34.754Z,11.70
2023-04-30T05:29:08.003Z,11.90
2023-04-30T05:29:41.436Z,11.80
2023-04-30T05:30:16.042Z,12.10
2023-04-30T05:30:49.436Z,12.00
2023-04-30T05:31:22.876Z,12.30
2023-04-30T05:31:56.321Z,12.00
2023-04-30T05:32:29.814Z,12.10
2023-04-30T05:33:04.051Z,11.20
2023-04-30T05:33:37.356Z,12.10
2023-04-30T05:34:10.620Z,11.60
2023-04-30T05:34:43.968Z,11.60
2023-04-30T05:35:18.068Z,11.50
2023-04-30T05:35:51.503Z,11.70
2023-04-30T05:36:24.756Z,12.10
2023-04-30T05:36:58.239Z,12.50
2023-04-30T05:37:31.622Z,12.00
2023-04-30T05:38:05.204Z,11.90
2023-04-30T05:38:38.481Z,12.30
2023-04-30T05:39:11.817Z,12.10
2023-04-30T05:39:45.237Z,12.20
2023-04-30T05:40:18.749Z,12.60
2023-04-30T05:40:52.395Z,12.30
2023-04-30T05:41:25.969Z,11.70
2023-04-30T05:41:59.238Z,12.00
2023-04-30T05:42:32.486Z,12.20
2023-04-30T05:43:05.833Z,11.70
2023-04-30T05:43:39.091Z,12.20
2023-04-30T05:44:12.310Z,12.10
2023-04-30T05:44:45.663Z,12.50
2023-04-30T05:45:19.044Z,12.10
2023-04-30T05:45:52.422Z,12.50
2023-04-30T05:46:25.927Z,13.00
2023-04-30T05:46:59.238Z,12.90
2023-04-30T05:47:32.596Z,12.90
2023-04-30T05:48:06.152Z,12.60
2023-04-30T05:48:40.188Z,12.30
2023-04-30T05:49:13.564Z,13.00
2023-04-30T05:49:46.738Z,13.10
2023-04-30T05:50:20.070Z,12.50
2023-04-30T05:50:53.310Z,12.50
2023-04-30T05:51:27.936Z,13.00
2023-04-30T05:52:02.430Z,12.80
2023-04-30T05:52:35.922Z,12.90
2023-04-30T05:53:11.734Z,13.00
2023-04-30T05:53:45.005Z,12.90
2023-04-30T05:54:18.306Z,12.70
2023-04-30T05:54:51.652Z,13.30
2023-04-30T05:55:25.051Z,13.00
2023-04-30T05:55:58.492Z,13.00
2023-04-30T05:56:31.947Z,12.90
2023-04-30T05:57:05.231Z,12.90
2023-04-30T05:57:38.578Z,13.30
2023-04-30T05:58:11.798Z,12.70
2023-04-30T05:58:45.195Z,12.70
2023-04-30T05:59:18.706Z,12.80
2023-04-30T05:59:52.210Z,13.30
2023-04-30T06:00:25.681Z,13.10
2023-04-30T06:00:59.490Z,14.90
2023-04-30T06:01:32.876Z,13.90
2023-04-30T06:02:07.195Z,14.20
2023-04-30T06:02:41.352Z,13.40
2023-04-30T06:03:14.702Z,12.70
2023-04-30T06:03:48.574Z,13.60
2023-04-30T06:04:21.911Z,13.40
2023-04-30T06:04:56.062Z,14.50
2023-04-30T06:05:30.279Z,13.90
2023-04-30T06:06:04.036Z,13.30
2023-04-30T06:06:39.767Z,13.50
2023-04-30T06:07:13.417Z,13.40
2023-04-30T06:07:46.739Z,14.20
2023-04-30T06:08:20.141Z,14.30
2023-04-30T06:08:53.460Z,14.70
2023-04-30T06:09:26.765Z,14.30
2023-04-30T06:10:00.067Z,14.60
2023-04-30T06:10:33.410Z,14.60
2023-04-30T06:11:06.679Z,14.00
2023-04-30T06:11:42.415Z,15.50
2023-04-30T06:12:16.025Z,14.30
2023-04-30T06:12:49.422Z,13.80
2023-04-30T06:13:42.226Z,15.00
2023-04-30T06:14:15.472Z,13.70
2023-04-30T06:14:48.813Z,14.20
2023-04-30T06:15:22.627Z,14.70
2023-04-30T06:15:56.059Z,14.80
2023-04-30T06:16:29.553Z,14.30
2023-04-30T06:17:03.749Z,14.10
2023-04-30T06:17:37.485Z,14.50
2023-04-30T06:18:12.669Z,14.70
2023-04-30T06:18:46.330Z,15.40
2023-04-30T06:19:19.742Z,15.00
2023-04-30T06:19:53.386Z,14.50
2023-04-30T06:20:27.667Z,15.50
2023-04-30T06:21:01.049Z,14.60
2023-04-30T06:21:34.506Z,14.40
2023-04-30T06:22:07.900Z,15.10
2023-04-30T06:22:41.515Z,14.80
2023-04-30T06:23:14.825Z,15.00
2023-04-30T06:23:48.219Z,15.30
2023-04-30T06:24:21.519Z,15.30
2023-04-30T06:24:54.768Z,14.80
2023-04-30T06:25:28.062Z,14.40
2023-04-30T06:26:01.599Z,15.10
2023-04-30T06:26:36.350Z,15.20
2023-04-30T06:27:11.108Z,13.70
2023-04-30T06:27:44.354Z,14.90
2023-04-30T06:28:17.656Z,14.60
2023-04-30T06:28:51.124Z,14.80
2023-04-30T06:29:24.701Z,15.60
2023-04-30T06:29:58.184Z,14.70
2023-04-30T06:30:32.505Z,14.60
2023-04-30T06:31:05.982Z,15.60
2023-04-30T06:31:39.495Z,14.60
2023-04-30T06:32:13.006Z,15.10
2023-04-30T06:32:46.315Z,14.90
2023-04-30T06:33:19.668Z,14.80
2023-04-30T06:33:53.087Z,14.50
2023-04-30T06:34:26.963Z,14.00
2023-04-30T06:35:00.450Z,14.10
2023-04-30T06:35:34.259Z,14.40
2023-04-30T06:36:07.688Z,13.70
2023-04-30T06:36:41.055Z,14.00
2023-04-30T06:37:14.441Z,14.20
2023-04-30T06:37:47.863Z,14.90
2023-04-30T06:38:21.539Z,14.90
2023-04-30T06:38:54.840Z,13.90
2023-04-30T06:39:28.150Z,14.10
2023-04-30T06:40:01.554Z,14.90
2023-04-30T06:40:37.367Z,14.20
2023-04-30T06:41:10.862Z,14.50
2023-04-30T06:41:44.213Z,13.90
2023-04-30T06:42:17.870Z,13.50
2023-04-30T06:42:51.469Z,13.50
2023-04-30T06:43:24.956Z,12.70
2023-04-30T06:43:58.367Z,13.20
2023-04-30T06:44:31.945Z,13.90
2023-04-30T06:45:08.749Z,13.40
2023-04-30T06:45:41.968Z,13.60
2023-04-30T06:46:15.512Z,13.60
2023-04-30T06:46:48.745Z,13.00
2023-04-30T06:47:22.013Z,13.70
2023-04-30T06:47:55.458Z,13.50
2023-04-30T06:48:28.783Z,13.30
2023-04-30T06:49:02.223Z,13.70
2023-04-30T06:49:35.658Z,12.10
2023-04-30T06:50:09.415Z,13.60
2023-04-30T06:50:45.399Z,13.50
2023-04-30T06:51:18.749Z,13.50
2023-04-30T06:51:52.069Z,13.30
2023-04-30T06:52:25.477Z,12.80
2023-04-30T06:52:58.783Z,13.00
2023-04-30T06:53:34.484Z,13.60
2023-04-30T06:54:08.470Z,12.70
2023-04-30T06:54:43.218Z,12.90
2023-04-30T06:55:16.516Z,12.50
2023-04-30T06:55:49.848Z,12.80
2023-04-30T06:56:23.375Z,12.70
2023-04-30T06:56:57.125Z,12.40
2023-04-30T06:57:31.333Z,12.60
2023-04-30T06:58:06.049Z,13.20
2023-04-30T06:58:41.982Z,12.40
2023-04-30T06:59:15.341Z,13.30
2023-04-30T06:59:48.694Z,12.90
2023-04-30T07:00:23.539Z,12.00
2023-04-30T07:00:56.905Z,13.20
2023-04-30T07:01:30.287Z,12.30
2023-04-30T07:02:03.733Z,11.70
2023-04-30T07:02:37.294Z,12.40
2023-04-30T07:03:10.726Z,12.80
2023-04-30T07:03:44.377Z,11.60
2023-04-30T07:04:17.827Z,11.90
2023-04-30T07:04:51.311Z,11.50
2023-04-30T07:05:24.732Z,11.70
2023-04-30T07:05:58.246Z,11.70
2023-04-30T07:06:31.636Z,11.80
2023-04-30T07:07:05.357Z,11.50
2023-04-30T07:07:38.848Z,11.80
2023-04-30T07:08:13.319Z,12.20
2023-04-30T07:08:46.724Z,11.30
2023-04-30T07:09:20.382Z,11.80
2023-04-30T07:09:54.105Z,11.60
2023-04-30T07:10:27.771Z,11.10
2023-04-30T07:11:01.168Z,11.80
2023-04-30T07:11:34.596Z,12.20
2023-04-30T07:12:08.030Z,11.70
2023-04-30T07:12:41.501Z,11.50
2023-04-30T07:13:15.289Z,12.10
2023-04-30T07:13:48.632Z,12.20
2023-04-30T07:14:21.980Z,12.00
2023-04-30T07:14:55.784Z,12.00
2023-04-30T07:15:29.260Z,11.50
2023-04-30T07:16:02.673Z,12.10
2023-04-30T07:16:36.153Z,11.90
2023-04-30T07:17:09.625Z,11.90
2023-04-30T07:17:42.844Z,11.90
2023-04-30T07:18:16.706Z,12.30
2023-04-30T07:18:50.306Z,12.10
2023-04-30T07:19:24.132Z,12.00
2023-04-30T07:19:57.633Z,11.60
2023-04-30T07:20:31.245Z,11.40
2023-04-30T07:21:04.835Z,11.40
2023-04-30T07:21:38.225Z,12.00
2023-04-30T07:22:11.602Z,12.20
2023-04-30T07:22:46.227Z,11.50
2023-04-30T07:23:19.803Z,11.60
2023-04-30T07:23:53.230Z,11.70
2023-04-30T07:24:26.509Z,11.70
2023-04-30T07:25:00.907Z,11.80
2023-04-30T07:25:35.569Z,11.80
2023-04-30T07:26:08.953Z,11.30
2023-04-30T07:26:42.722Z,11.70
2023-04-30T07:27:16.436Z,11.50
2023-04-30T07:27:52.065Z,11.70
2023-04-30T07:28:25.469Z,11.40
2023-04-30T07:28:58.859Z,11.50
2023-04-30T07:29:32.657Z,11.50
2023-04-30T07:30:06.742Z,11.20
2023-04-30T07:30:40.227Z,11.30
2023-04-30T07:31:13.990Z,11.90
2023-04-30T07:31:47.437Z,11.40
2023-04-30T07:32:21.691Z,11.10
2023-04-30T07:32:55.029Z,11.40
2023-04-30T07:33:28.539Z,10.90
2023-04-30T07:34:01.965Z,11.40
2023-04-30T07:34:35.453Z,10.90
2023-04-30T07:35:09.241Z,10.80
2023-04-30T07:35:42.780Z,10.80
2023-04-30T07:36:16.908Z,10.50
2023-04-30T07:36:50.532Z,11.10
2023-04-30T07:37:24.085Z,10.60
2023-04-30T07:37:57.458Z,10.60
2023-04-30T07:38:31.142Z,11.30
2023-04-30T07:39:04.721Z,10.80
2023-04-30T07:39:38.400Z,10.40
2023-04-30T07:40:21.945Z,10.50
2023-04-30T07:41:02.459Z,10.20
2023-04-30T07:41:35.855Z,11.10
2023-04-30T07:42:09.238Z,9.70
2023-04-30T07:42:42.673Z,10.30
2023-04-30T07:43:16.035Z,10.50
2023-04-30T07:43:49.303Z,10.90
2023-04-30T07:44:22.792Z,10.20
2023-04-30T07:44:56.138Z,10.20
2023-04-30T07:45:29.449Z,9.90
2023-04-30T07:46:04.416Z,10.80
2023-04-30T07:46:37.953Z,10.40
2023-04-30T07:47:16.751Z,10.50
2023-04-30T07:47:51.489Z,10.10
2023-04-30T07:48:24.880Z,10.00
2023-04-30T07:48:59.506Z,10.90
2023-04-30T07:49:32.910Z,11.20
2023-04-30T07:50:06.881Z,10.60
2023-04-30T07:50:40.190Z,10.90
2023-04-30T07:51:13.469Z,10.90
2023-04-30T07:51:47.247Z,10.40
2023-04-30T07:52:20.580Z,10.50
2023-04-30T07:52:53.936Z,10.90
2023-04-30T07:53:27.188Z,10.60
2023-04-30T07:54:01.022Z,11.00
2023-04-30T07:54:36.820Z,10.80
2023-04-30T07:55:12.682Z,11.10
2023-04-30T07:55:46.584Z,10.30
2023-04-30T07:56:20.484Z,10.80
2023-04-30T07:57:27.237Z,11.20
2023-04-30T07:58:00.743Z,10.80
2023-04-30T07:58:34.700Z,9.80
2023-04-30T07:59:07.888Z,9.50
2023-04-30T07:59:41.197Z,8.50
2023-04-30T08:00:15.793Z,9.50
2023-04-30T08:00:49.143Z,8.90
2023-04-30T08:01:22.502Z,9.00
2023-04-30T08:01:56.178Z,9.50
2023-04-30T08:02:29.723Z,9.20
2023-04-30T08:03:03.226Z,9.50
2023-04-30T08:03:36.946Z,9.30
2023-04-30T08:04:10.656Z,9.30
2023-04-30T08:04:44.138Z,9.20
2023-04-30T08:05:17.535Z,9.00
2023-04-30T08:05:51.025Z,9.60
2023-04-30T08:06:24.631Z,8.40
2023-04-30T08:06:57.958Z,9.60
2023-04-30T08:07:31.220Z,9.90
2023-04-30T08:08:05.155Z,9.10
2023-04-30T08:08:39.911Z,9.80
2023-04-30T08:09:13.253Z,9.80
2023-04-30T08:09:46.772Z,9.70
2023-04-30T08:10:20.270Z,9.70
2023-04-30T08:10:53.526Z,9.50
2023-04-30T08:11:27.524Z,9.20
2023-04-30T08:12:02.204Z,8.90
2023-04-30T08:12:38.401Z,8.90
2023-04-30T08:13:11.884Z,8.90
2023-04-30T08:13:45.502Z,8.80
2023-04-30T08:14:19.480Z,8.40
2023-04-30T08:15:01.008Z,8.90
2023-04-30T08:15:34.623Z,8.80
2023-04-30T08:16:08.740Z,8.60
2023-04-30T08:16:42.122Z,8.20
2023-04-30T08:17:19.010Z,8.70
2023-04-30T08:17:52.943Z,8.30
2023-04-30T08:18:26.326Z,8.80
2023-04-30T08:19:00.816Z,8.90
2023-04-30T08:19:34.288Z,8.90
2023-04-30T08:20:08.380Z,8.70
2023-04-30T08:20:42.187Z,8.60
2023-04-30T08:21:16.485Z,8.30
2023-04-30T08:21:49.969Z,8.70
2023-04-30T08:22:23.766Z,8.70
2023-04-30T08:22:57.100Z,8.50
2023-04-30T08:23:31.800Z,8.20
2023-04-30T08:24:05.473Z,8.40
2023-04-30T08:24:38.921Z,8.00
2023-04-30T08:25:13.808Z,8.40
2023-04-30T08:25:48.261Z,7.90
2023-04-30T08:26:22.124Z,7.90
2023-04-30T08:26:55.710Z,8.00
2023-04-30T08:27:31.767Z,8.20
2023-04-30T08:28:05.221Z,7.80
2023-04-30T08:28:38.512Z,8.00
2023-04-30T08:29:11.846Z,8.40
2023-04-30T08:29:45.143Z,7.60
2023-04-30T08:30:18.464Z,7.50
2023-04-30T08:30:51.824Z,7.60
2023-04-30T08:31:25.370Z,7.50
2023-04-30T08:32:04.780Z,7.40
2023-04-30T08:32:38.660Z,7.20
2023-04-30T08:33:12.241Z,6.70
2023-04-30T08:33:45.850Z,7.00
2023-04-30T08:34:19.276Z,6.80
2023-04-30T08:34:52.804Z,6.90
2023-04-30T08:35:26.388Z,6.80
2023-04-30T08:36:00.329Z,6.90
2023-04-30T08:37:39.572Z,6.70
2023-04-30T08:39:46.675Z,6.20
2023-04-30T08:42:29.604Z,7.00
2023-04-30T08:43:09.949Z,6.90
2023-04-30T08:43:44.999Z,7.10
2023-04-30T08:44:20.712Z,6.00
2023-04-30T08:44:59.592Z,6.20
2023-04-30T08:45:34.253Z,6.80
2023-04-30T08:46:07.941Z,5.40
2023-04-30T08:46:55.758Z,6.80
2023-04-30T08:47:29.948Z,6.60
2023-04-30T08:48:04.880Z,6.10
2023-04-30T08:49:57.678Z,5.80
2023-04-30T08:50:31.612Z,6.40
2023-04-30T08:52:06.546Z,6.70
2023-04-30T08:52:42.625Z,5.90
2023-04-30T08:53:17.710Z,6.70
2023-04-30T08:53:55.408Z,6.20
2023-04-30T08:54:31.801Z,6.10
2023-04-30T08:55:09.123Z,6.20
2023-04-30T08:55:42.714Z,6.60
2023-04-30T08:56:16.285Z,6.10
2023-04-30T08:56:50.370Z,6.40
2023-04-30T08:57:23.820Z,5.80
2023-04-30T08:57:57.133Z,6.00
2023-04-30T08:58:30.469Z,5.50
2023-04-30T08:59:03.774Z,6.80
2023-04-30T08:59:37.459Z,6.40
2023-04-30T09:00:11.318Z,6.30
2023-04-30T09:00:44.769Z,5.60
2023-04-30T09:01:18.473Z,6.10
2023-04-30T09:01:53.804Z,5.80
2023-04-30T09:02:27.678Z,6.10
2023-04-30T09:03:01.758Z,6.10
2023-04-30T09:03:35.613Z,6.60
2023-04-30T09:04:09.143Z,6.50
2023-04-30T09:04:42.783Z,6.20
2023-04-30T09:05:16.290Z,6.40
2023-04-30T09:05:52.417Z,6.10
2023-04-30T09:06:26.067Z,5.90
2023-04-30T09:06:59.788Z,6.10